createdAt,value
2023-04-30T00:00:26.470Z,93.10
2023-04-30T00:02:53.616Z,92.90
2023-04-30T00:05:20.613Z,92.80
2023-04-30T00:07:47.890Z,92.90
2023-04-30T00:10:14.824Z,93.00
2023-04-30T00:12:41.763Z,93.40
2023-04-30T00:15:08.884Z,94.30
2023-04-30T00:17:35.980Z,93.70
2023-04-30T00:20:03.075Z,93.70
2023-04-30T00:22:30.093Z,93.60
2023-04-30T00:24:56.981Z,93.70
2023-04-30T00:27:24.058Z,93.80
2023-04-30T00:29:51.285Z,94.30
2023-04-30T00:32:18.282Z,94.40
2023-04-30T00:34:46.181Z,94.60
2023-04-30T00:37:13.200Z,94.60
2023-04-30T00:39:40.327Z,94.60
2023-04-30T00:42:07.419Z,94.80
2023-04-30T00:44:34.348Z,94.90
2023-04-30T00:47:01.320Z,94.90
2023-04-30T00:49:28.254Z,94.80
2023-04-30T00:51:55.891Z,94.60
2023-04-30T00:54:23.557Z,94.80
2023-04-30T00:56:52.172Z,94.80
2023-04-30T00:59:19.243Z,94.70
2023-04-30T01:01:46.361Z,94.70
2023-04-30T01:04:13.564Z,94.80
2023-04-30T01:06:41.067Z,94.90
2023-04-30T01:09:08.414Z,94.70
2023-04-30T01:11:45.608Z,94.90
2023-04-30T01:14:17.619Z,95.40
2023-04-30T01:16:51.388Z,95.80
2023-04-30T01:19:24.703Z,96.20
2023-04-30T01:21:52.302Z,96.00
2023-04-30T01:24:22.328Z,96.30
2023-04-30T01:27:08.472Z,96.60
2023-04-30T01:29:36.627Z,97.00
2023-04-30T01:32:03.842Z,97.10
2023-04-30T01:34:31.398Z,97.20
2023-04-30T01:36:58.309Z,97.20
2023-04-30T01:39:25.811Z,97.60
2023-04-30T01:41:58.121Z,97.70
2023-04-30T01:44:33.313Z,98.60
2023-04-30T01:47:08.212Z,98.60
2023-04-30T01:49:54.429Z,98.80
2023-04-30T01:52:26.076Z,99.10
2023-04-30T01:54:56.444Z,99.50
2023-04-30T01:57:27.917Z,99.00
2023-04-30T01:59:55.269Z,98.60
2023-04-30T02:02:22.578Z,99.00
2023-04-30T02:04:49.979Z,98.80
2023-04-30T02:07:21.021Z,98.50
2023-04-30T02:09:48.190Z,98.80
2023-04-30T02:12:15.476Z,98.70
2023-04-30T02:14:42.385Z,99.00
2023-04-30T02:17:09.498Z,99.00
2023-04-30T02:19:36.652Z,99.30
2023-04-30T02:22:03.620Z,99.30
2023-04-30T02:24:30.508Z,99.20
2023-04-30T02:26:57.399Z,99.10
2023-04-30T02:29:24.350Z,99.50
2023-04-30T02:31:51.373Z,99.50
2023-04-30T02:34:18.640Z,99.60
2023-04-30T02:36:45.626Z,99.90
2023-04-30T02:39:12.533Z,99.90
2023-04-30T02:41:39.625Z,99.90
2023-04-30T02:44:06.791Z,99.90
2023-04-30T02:46:34.601Z,99.90
2023-04-30T02:49:01.589Z,99.90
2023-04-30T02:51:28.641Z,99.90
2023-04-30T02:53:56.061Z,99.90
2023-04-30T02:56:23.119Z,99.90
2023-04-30T02:58:50.113Z,99.90
2023-04-30T03:01:17.690Z,99.90
2023-04-30T03:03:44.680Z,99.90
2023-04-30T03:06:11.657Z,99.90
2023-04-30T03:08:38.664Z,99.90
2023-04-30T03:11:05.622Z,99.90
2023-04-30T03:13:33.021Z,99.90
2023-04-30T03:16:00.940Z,99.90
2023-04-30T03:18:29.346Z,99.90
2023-04-30T03:20:57.398Z,99.90
2023-04-30T03:23:25.197Z,99.90
2023-04-30T03:25:52.513Z,99.90
2023-04-30T03:28:19.947Z,99.90
2023-04-30T03:30:47.249Z,99.90
2023-04-30T03:33:14.382Z,99.90
2023-04-30T03:35:41.406Z,99.90
2023-04-30T03:38:08.610Z,99.90
2023-04-30T03:40:35.770Z,99.90
2023-04-30T03:43:02.805Z,99.90
2023-04-30T03:45:29.950Z,99.90
2023-04-30T03:47:57.034Z,99.90
2023-04-30T03:50:24.129Z,99.90
2023-04-30T03:52:51.096Z,99.90
2023-04-30T03:55:18.732Z,99.90
2023-04-30T03:57:45.764Z,99.90
2023-04-30T04:00:13.690Z,99.90
2023-04-30T04:02:43.460Z,99.90
2023-04-30T04:05:11.631Z,99.90
2023-04-30T04:07:38.712Z,99.90
2023-04-30T04:10:06.025Z,99.90
2023-04-30T04:12:33.108Z,99.90
2023-04-30T04:14:59.992Z,99.90
2023-04-30T04:17:27.254Z,99.90
2023-04-30T04:19:54.423Z,99.90
2023-04-30T04:22:21.534Z,99.90
2023-04-30T04:24:48.561Z,99.90
2023-04-30T04:27:20.541Z,99.90
2023-04-30T04:29:48.102Z,99.90
2023-04-30T04:32:15.060Z,99.90
2023-04-30T04:34:43.764Z,99.90
2023-04-30T04:37:10.699Z,99.90
2023-04-30T04:39:37.900Z,99.90
2023-04-30T04:42:05.249Z,99.90
2023-04-30T04:44:33.020Z,99.90
2023-04-30T04:47:00.151Z,99.90
2023-04-30T04:49:27.140Z,99.90
2023-04-30T04:51:54.125Z,99.90
2023-04-30T04:54:21.349Z,99.90
2023-04-30T04:56:48.749Z,99.90
2023-04-30T04:59:17.127Z,99.90
2023-04-30T05:01:44.781Z,99.90
2023-04-30T05:04:13.908Z,99.90
2023-04-30T05:06:42.682Z,99.90
2023-04-30T05:09:12.463Z,99.90
2023-04-30T05:11:41.646Z,99.90
2023-04-30T05:26:00.588Z,99.90
2023-04-30T05:31:33.564Z,99.90
2023-04-30T05:34:01.064Z,99.90
2023-04-30T05:36:30.249Z,99.90
2023-04-30T05:38:57.299Z,99.90
2023-04-30T05:41:26.395Z,99.90
2023-04-30T05:43:58.967Z,99.90
2023-04-30T05:46:27.573Z,99.90
2023-04-30T05:54:38.791Z,99.90
2023-04-30T05:57:05.874Z,99.90
2023-04-30T05:59:34.191Z,99.90
2023-04-30T06:05:08.051Z,99.90
2023-04-30T06:07:44.005Z,99.90
2023-04-30T06:10:12.554Z,99.90
2023-04-30T06:12:40.085Z,99.90
2023-04-30T06:15:08.227Z,99.90
2023-04-30T06:17:35.605Z,99.90
2023-04-30T06:20:07.501Z,99.90
2023-04-30T06:22:35.127Z,99.90
2023-04-30T06:25:05.641Z,99.50
2023-04-30T06:27:40.116Z,98.50
2023-04-30T06:30:13.370Z,98.80
2023-04-30T06:33:02.200Z,98.20
2023-04-30T06:35:29.539Z,97.90
2023-04-30T06:37:56.977Z,97.90
2023-04-30T06:40:24.056Z,97.20
2023-04-30T06:42:51.341Z,96.50
2023-04-30T06:45:21.559Z,96.80
2023-04-30T06:47:56.409Z,96.20
2023-04-30T06:50:27.721Z,96.80
2023-04-30T06:52:54.656Z,96.10
2023-04-30T06:55:21.854Z,95.00
2023-04-30T06:57:48.909Z,94.50
2023-04-30T07:00:18.038Z,94.10
2023-04-30T07:02:48.125Z,93.60
2023-04-30T07:05:16.235Z,93.70
2023-04-30T07:07:44.296Z,93.20
2023-04-30T07:10:12.147Z,92.10
2023-04-30T07:12:43.676Z,92.00
2023-04-30T07:15:11.047Z,91.40
2023-04-30T07:17:38.746Z,90.70
2023-04-30T07:20:08.352Z,90.50
2023-04-30T07:22:35.267Z,90.00
2023-04-30T07:25:02.372Z,89.00
2023-04-30T07:27:29.259Z,89.20
2023-04-30T07:29:56.604Z,88.00
2023-04-30T07:32:27.610Z,87.20
2023-04-30T07:34:54.783Z,86.90
2023-04-30T07:37:22.063Z,85.90
2023-04-30T07:39:49.506Z,85.90
2023-04-30T07:42:16.782Z,84.20
2023-04-30T07:44:46.468Z,84.20
2023-04-30T07:47:13.655Z,83.80
2023-04-30T07:49:44.455Z,82.30
2023-04-30T07:52:12.803Z,82.50
2023-04-30T07:54:41.456Z,82.40
2023-04-30T07:57:08.948Z,81.40
2023-04-30T07:59:36.514Z,82.10
2023-04-30T08:02:04.096Z,81.20
2023-04-30T08:04:31.519Z,81.80
2023-04-30T08:06:58.974Z,79.90
2023-04-30T08:09:26.328Z,79.20
2023-04-30T08:11:54.375Z,78.20
2023-04-30T08:14:21.895Z,79.30
2023-04-30T08:16:49.010Z,79.70
2023-04-30T08:19:16.032Z,78.60
2023-04-30T08:21:46.104Z,79.20
2023-04-30T08:24:13.205Z,78.70
2023-04-30T08:26:40.121Z,78.10
2023-04-30T08:29:08.423Z,79.10
2023-04-30T08:31:35.689Z,79.20
2023-04-30T08:34:02.671Z,79.40
2023-04-30T08:36:29.607Z,78.10
2023-04-30T08:38:58.095Z,78.20
2023-04-30T08:41:32.150Z,78.20
2023-04-30T08:44:01.533Z,78.20
2023-04-30T08:46:31.977Z,77.50
2023-04-30T08:49:00.049Z,77.90
2023-04-30T08:51:27.809Z,78.10
2023-04-30T08:53:55.657Z,78.00
2023-04-30T08:56:24.742Z,77.40
2023-04-30T08:58:52.794Z,76.20
2023-04-30T09:01:20.067Z,76.70
2023-04-30T09:03:48.190Z,77.00
2023-04-30T09:06:15.861Z,75.90
2023-04-30T09:08:43.213Z,75.70
2023-04-30T09:11:27.060Z,76.10
2023-04-30T09:16:46.252Z,76.70
2023-04-30T09:19:26.030Z,75.00
2023-04-30T09:21:55.973Z,75.10
2023-04-30T09:24:23.209Z,74.60
2023-04-30T09:26:51.001Z,73.70
2023-04-30T09:29:19.200Z,73.40
2023-04-30T09:31:49.844Z,73.60
2023-04-30T09:34:33.547Z,74.10
2023-04-30T09:37:04.933Z,72.60
2023-04-30T09:39:32.019Z,73.90
2023-04-30T09:42:11.669Z,72.20
2023-04-30T09:44:39.735Z,71.10
2023-04-30T09:47:32.870Z,71.60
2023-04-30T09:50:00.598Z,71.40
2023-04-30T09:52:31.911Z,70.40
2023-04-30T09:55:06.350Z,69.50
2023-04-30T09:57:39.377Z,68.10
2023-04-30T10:00:09.083Z,68.30
2023-04-30T10:06:45.541Z,68.40
2023-04-30T10:09:39.107Z,71.60
2023-04-30T10:15:26.011Z,70.60
2023-04-30T10:18:05.159Z,70.50
2023-04-30T10:20:35.292Z,69.50
2023-04-30T10:23:09.040Z,68.10
2023-04-30T10:25:38.995Z,68.20
2023-04-30T10:28:08.768Z,68.90
2023-04-30T10:30:37.867Z,67.90
2023-04-30T10:33:04.968Z,66.60
2023-04-30T10:35:53.685Z,66.40
2023-04-30T10:38:22.476Z,66.40
2023-04-30T10:40:51.353Z,66.90
2023-04-30T10:43:21.487Z,65.60
2023-04-30T10:45:57.333Z,65.60
2023-04-30T10:51:38.925Z,66.80
2023-04-30T11:01:36.299Z,66.30
2023-04-30T11:08:33.486Z,66.40
2023-04-30T11:11:05.434Z,67.50
2023-04-30T11:13:41.579Z,66.00
2023-04-30T11:16:09.234Z,66.10
2023-04-30T11:18:41.485Z,67.40
2023-04-30T11:21:09.181Z,67.60
2023-04-30T11:23:40.532Z,68.20
2023-04-30T11:26:15.127Z,68.20
2023-04-30T11:28:50.213Z,68.20
2023-04-30T11:31:17.444Z,67.90
2023-04-30T11:33:44.555Z,67.80
2023-04-30T11:36:11.515Z,66.70
2023-04-30T11:38:38.544Z,66.80
2023-04-30T11:41:06.354Z,67.40
2023-04-30T11:43:33.936Z,66.80
2023-04-30T11:46:01.660Z,66.50
2023-04-30T11:48:35.269Z,66.90
2023-04-30T11:51:06.789Z,66.40
2023-04-30T11:53:33.711Z,65.90
2023-04-30T11:56:04.252Z,65.80
2023-04-30T11:58:33.707Z,66.00
2023-04-30T12:01:01.643Z,66.40
2023-04-30T12:03:29.473Z,65.80
2023-04-30T12:05:56.643Z,65.10
2023-04-30T12:08:24.332Z,66.00
2023-04-30T12:10:51.307Z,65.90
2023-04-30T12:13:18.274Z,66.20
2023-04-30T12:15:57.733Z,65.40
2023-04-30T12:18:24.893Z,65.50
2023-04-30T12:20:51.995Z,65.50
2023-04-30T12:23:19.549Z,65.00
2023-04-30T12:25:52.560Z,64.40
2023-04-30T12:28:19.487Z,63.60
2023-04-30T12:30:47.281Z,63.90
2023-04-30T12:33:14.244Z,62.60
2023-04-30T12:35:43.088Z,64.10
2023-04-30T12:38:10.115Z,62.30
2023-04-30T12:40:37.312Z,62.80
2023-04-30T12:43:16.261Z,62.30
2023-04-30T12:45:54.592Z,64.00
2023-04-30T12:48:22.638Z,60.60
2023-04-30T12:50:58.836Z,61.70
2023-04-30T12:53:25.831Z,60.20
2023-04-30T12:56:13.090Z,59.30
2023-04-30T12:58:43.427Z,59.60
2023-04-30T13:01:11.494Z,60.00
2023-04-30T13:03:38.849Z,60.00
2023-04-30T13:06:07.077Z,59.60
2023-04-30T13:08:45.700Z,59.60
2023-04-30T13:11:21.992Z,60.40
2023-04-30T13:13:48.883Z,59.00
2023-04-30T13:16:16.898Z,58.80
2023-04-30T13:18:45.093Z,59.00
2023-04-30T13:21:12.812Z,59.50
2023-04-30T13:23:51.072Z,60.20
2023-04-30T13:26:24.067Z,60.00
2023-04-30T13:28:54.120Z,60.40
2023-04-30T13:31:23.031Z,62.30
2023-04-30T13:33:54.978Z,63.30
2023-04-30T13:36:23.315Z,63.70
2023-04-30T13:38:50.202Z,64.30
2023-04-30T13:41:42.930Z,64.40
2023-04-30T13:44:16.161Z,63.90
2023-04-30T13:46:51.339Z,64.20
2023-04-30T13:49:18.325Z,64.50
2023-04-30T13:51:45.273Z,64.80
2023-04-30T13:54:12.138Z,64.70
2023-04-30T13:56:40.148Z,64.60
2023-04-30T13:59:10.872Z,64.10
2023-04-30T14:01:37.893Z,64.30
2023-04-30T14:04:13.466Z,64.10
2023-04-30T14:06:40.654Z,64.00
2023-04-30T14:09:11.527Z,63.60
2023-04-30T14:11:38.512Z,63.20
2023-04-30T14:14:06.575Z,62.10
2023-04-30T14:16:33.589Z,61.40
2023-04-30T14:19:00.809Z,61.30
2023-04-30T14:21:29.395Z,61.70
2023-04-30T14:23:56.315Z,59.20
2023-04-30T14:26:23.300Z,59.50
2023-04-30T14:28:50.607Z,60.50
2023-04-30T14:31:19.991Z,61.60
2023-04-30T14:33:46.945Z,70.30
2023-04-30T14:36:14.055Z,72.30
2023-04-30T14:38:41.230Z,73.40
2023-04-30T14:41:17.477Z,75.60
2023-04-30T14:43:47.762Z,76.70
2023-04-30T14:46:17.148Z,77.50
2023-04-30T14:48:45.348Z,78.50
2023-04-30T14:51:18.331Z,79.30
2023-04-30T14:54:17.328Z,80.30
2023-04-30T14:56:57.863Z,81.00
2023-04-30T14:59:24.760Z,82.10
2023-04-30T15:01:52.211Z,81.80
2023-04-30T15:04:19.679Z,82.10
2023-04-30T15:06:50.989Z,82.00
2023-04-30T15:09:42.883Z,83.20
2023-04-30T15:12:11.282Z,83.90
2023-04-30T15:14:38.187Z,83.80
2023-04-30T15:17:10.235Z,83.70
2023-04-30T15:19:39.791Z,83.00
2023-04-30T15:22:12.119Z,81.80
2023-04-30T15:24:54.265Z,80.80
2023-04-30T15:27:33.821Z,79.50
2023-04-30T15:30:01.267Z,78.60
2023-04-30T15:32:32.558Z,78.50
2023-04-30T15:37:40.547Z,78.30
2023-04-30T15:40:15.615Z,77.80
2023-04-30T15:42:46.151Z,77.90
2023-04-30T15:45:13.403Z,78.10
2023-04-30T15:50:48.761Z,81.50
2023-04-30T15:53:18.866Z,84.90
2023-04-30T15:55:48.198Z,85.80
2023-04-30T16:01:06.857Z,84.60
2023-04-30T16:06:58.220Z,83.60
2023-04-30T16:09:28.366Z,82.50
2023-04-30T16:11:56.447Z,82.40
2023-04-30T16:14:28.093Z,82.10
2023-04-30T16:17:29.450Z,82.10
2023-04-30T16:19:57.745Z,81.80
2023-04-30T16:22:28.417Z,81.00
2023-04-30T16:24:58.286Z,80.40
2023-04-30T16:27:25.583Z,79.90
2023-04-30T16:43:01.039Z,80.60
2023-04-30T16:51:52.039Z,80.40
2023-04-30T16:54:19.144Z,81.00
2023-04-30T17:03:35.554Z,83.10
2023-04-30T17:09:30.952Z,83.70
2023-04-30T17:18:36.387Z,83.80
2023-04-30T17:24:20.161Z,83.80
2023-04-30T17:26:56.464Z,83.90
2023-04-30T17:39:44.909Z,84.70
2023-04-30T17:42:13.845Z,84.40
2023-04-30T17:44:52.016Z,84.80
2023-04-30T17:47:23.166Z,84.90
2023-04-30T17:49:57.169Z,84.80
2023-04-30T17:52:29.518Z,85.20
2023-04-30T17:55:01.515Z,85.70
2023-04-30T18:00:37.949Z,86.60
2023-04-30T18:03:06.933Z,86.80
2023-04-30T18:08:38.080Z,87.50
2023-04-30T18:11:05.446Z,88.30
2023-04-30T18:13:32.902Z,88.90
2023-04-30T18:16:00.097Z,89.50
2023-04-30T18:18:27.266Z,90.10
2023-04-30T18:20:55.903Z,90.20
2023-04-30T18:23:23.078Z,90.40
2023-04-30T18:25:50.154Z,90.60
2023-04-30T18:28:17.886Z,90.60
2023-04-30T18:30:45.273Z,90.70
2023-04-30T18:33:12.755Z,91.00
2023-04-30T19:09:18.767Z,93.70
2023-04-30T19:11:47.778Z,94.00
2023-04-30T19:53:55.461Z,96.60
2023-04-30T19:56:26.299Z,96.70
2023-04-30T19:58:53.787Z,97.10
2023-04-30T20:01:22.691Z,97.40
2023-04-30T20:03:53.526Z,97.30
2023-04-30T20:09:29.126Z,97.10
2023-04-30T20:11:57.724Z,97.00
2023-04-30T20:14:25.047Z,97.30
2023-04-30T20:16:54.572Z,97.40
2023-04-30T20:19:30.053Z,97.70
2023-04-30T20:21:59.124Z,98.10
2023-04-30T20:24:26.546Z,98.30
2023-04-30T20:26:53.981Z,98.40
2023-04-30T20:29:23.371Z,98.40
2023-04-30T20:31:52.752Z,98.50
2023-04-30T20:34:20.363Z,98.60
2023-04-30T20:36:47.438Z,98.80
2023-04-30T20:39:17.691Z,98.90
2023-04-30T20:41:48.062Z,99.20
2023-04-30T20:44:15.863Z,99.40
2023-04-30T20:46:44.913Z,99.60
2023-04-30T20:49:14.743Z,99.80
2023-04-30T20:51:41.910Z,99.50
2023-04-30T20:54:09.519Z,98.90
2023-04-30T20:56:39.032Z,98.60
2023-04-30T20:59:08.066Z,98.30
2023-04-30T21:01:35.376Z,98.10
2023-04-30T21:04:02.569Z,97.90
2023-04-30T21:06:29.551Z,97.90
2023-04-30T21:08:56.528Z,98.00
2023-04-30T21:11:29.733Z,98.00
2023-04-30T21:13:58.161Z,97.90
2023-04-30T21:16:25.409Z,98.30
2023-04-30T21:18:52.341Z,98.60
2023-04-30T21:21:19.414Z,98.60
2023-04-30T21:23:48.207Z,98.10
2023-04-30T21:26:16.606Z,97.60
2023-04-30T21:28:46.987Z,96.40
2023-04-30T21:31:15.373Z,95.80
2023-04-30T21:33:42.335Z,95.70
2023-04-30T21:36:09.532Z,95.30
2023-04-30T21:38:42.301Z,94.90
2023-04-30T21:41:18.515Z,94.60
2023-04-30T21:43:47.045Z,94.40
2023-04-30T21:46:15.445Z,94.00
2023-04-30T21:48:42.641Z,93.90
2023-04-30T21:51:17.708Z,94.00
2023-04-30T21:53:46.426Z,93.80
2023-04-30T21:56:13.577Z,93.80
2023-04-30T21:58:41.982Z,93.60
2023-04-30T22:01:09.212Z,93.70
2023-04-30T22:03:37.827Z,94.00
2023-04-30T22:06:07.589Z,94.10
2023-04-30T22:08:34.712Z,94.20
2023-04-30T22:11:01.901Z,94.30
2023-04-30T22:13:29.752Z,94.10
2023-04-30T22:15:57.203Z,94.00
2023-04-30T22:18:28.916Z,94.00
2023-04-30T22:20:55.832Z,93.80
2023-04-30T22:23:22.742Z,93.80
2023-04-30T22:25:50.587Z,93.60
2023-04-30T22:28:19.358Z,93.70
2023-04-30T22:30:49.900Z,93.50
2023-04-30T22:33:22.064Z,93.20
2023-04-30T22:35:51.875Z,93.20
2023-04-30T22:38:18.926Z,93.40
2023-04-30T22:40:47.507Z,93.30
2023-04-30T22:43:18.973Z,93.50
2023-04-30T22:45:46.084Z,93.60
2023-04-30T22:48:18.303Z,93.10
2023-04-30T22:50:48.457Z,93.20
2023-04-30T22:53:17.723Z,93.40
2023-04-30T22:55:45.385Z,93.80
2023-04-30T22:58:12.993Z,93.60
2023-04-30T23:00:40.035Z,93.80
2023-04-30T23:03:07.348Z,93.50
2023-04-30T23:05:34.410Z,94.00
2023-04-30T23:08:03.215Z,94.00
2023-04-30T23:10:30.448Z,94.20
2023-04-30T23:12:58.871Z,93.90
2023-04-30T23:15:26.357Z,93.90
2023-04-30T23:18:08.496Z,93.60
2023-04-30T23:20:35.580Z,93.30
2023-04-30T23:23:02.568Z,92.90
2023-04-30T23:29:10.983Z,92.90
2023-04-30T23:31:38.285Z,92.40
2023-04-30T23:34:08.214Z,92.50
2023-04-30T23:36:35.156Z,92.60
2023-04-30T23:39:02.099Z,93.00
2023-04-30T23:41:29.789Z,93.30
2023-04-30T23:43:59.692Z,93.70
2023-04-30T23:46:26.959Z,93.90
2023-04-30T23:48:54.023Z,93.40
2023-04-30T23:51:24.776Z,93.40
2023-04-30T23:57:06.071Z,93.20
2023-04-30T23:59:37.055Z,93.10
